sensor_id;sensor_type;location;lat;lon;timestamp;P1;durP1;ratioP1;P2;durP2;ratioP2
37781;SDS011;23621;50.878;4.584;2022-09-09T00:03:59;2.55;;;1.58;;
37781;SDS011;23621;50.878;4.584;2022-09-09T00:06:45;3.58;;;1.45;;
37781;SDS011;23621;50.878;4.584;2022-09-09T00:09:33;4.45;;;1.40;;
37781;SDS011;23621;50.878;4.584;2022-09-09T00:12:18;2.60;;;1.42;;
37781;SDS011;23621;50.878;4.584;2022-09-09T00:14:56;2.95;;;1.48;;
37781;SDS011;23621;50.878;4.584;2022-09-09T00:22:54;4.28;;;1.85;;
37781;SDS011;23621;50.878;4.584;2022-09-09T00:25:29;1.50;;;1.40;;
37781;SDS011;23621;50.878;4.584;2022-09-09T00:28:18;2.70;;;1.40;;
37781;SDS011;23621;50.878;4.584;2022-09-09T00:30:50;3.30;;;1.42;;
37781;SDS011;23621;50.878;4.584;2022-09-09T00:33:18;4.03;;;1.50;;
37781;SDS011;23621;50.878;4.584;2022-09-09T00:35:49;2.92;;;1.40;;
37781;SDS011;23621;50.878;4.584;2022-09-09T00:43:32;6.22;;;1.60;;
37781;SDS011;23621;50.878;4.584;2022-09-09T00:49:14;3.70;;;1.30;;
37781;SDS011;23621;50.878;4.584;2022-09-09T00:51:58;4.32;;;1.50;;
37781;SDS011;23621;50.878;4.584;2022-09-09T01:02:28;4.20;;;1.50;;
37781;SDS011;23621;50.878;4.584;2022-09-09T01:05:19;4.60;;;1.60;;
37781;SDS011;23621;50.878;4.584;2022-09-09T01:07:50;3.35;;;1.52;;
37781;SDS011;23621;50.878;4.584;2022-09-09T01:10:30;3.17;;;1.33;;
37781;SDS011;23621;50.878;4.584;2022-09-09T01:13:26;4.70;;;2.00;;
37781;SDS011;23621;50.878;4.584;2022-09-09T01:16:00;3.90;;;1.73;;
37781;SDS011;23621;50.878;4.584;2022-09-09T01:18:33;2.83;;;1.42;;
37781;SDS011;23621;50.878;4.584;2022-09-09T01:24:12;4.82;;;1.63;;
37781;SDS011;23621;50.878;4.584;2022-09-09T01:26:47;4.32;;;1.58;;
37781;SDS011;23621;50.878;4.584;2022-09-09T01:29:17;5.57;;;1.70;;
37781;SDS011;23621;50.878;4.584;2022-09-09T01:31:54;6.43;;;1.80;;
37781;SDS011;23621;50.878;4.584;2022-09-09T01:34:25;4.32;;;1.30;;
37781;SDS011;23621;50.878;4.584;2022-09-09T01:36:59;2.40;;;1.70;;
37781;SDS011;23621;50.878;4.584;2022-09-09T01:39:37;3.25;;;1.50;;
37781;SDS011;23621;50.878;4.584;2022-09-09T01:42:07;4.15;;;1.58;;
37781;SDS011;23621;50.878;4.584;2022-09-09T01:44:36;6.03;;;1.60;;
37781;SDS011;23621;50.878;4.584;2022-09-09T01:47:03;3.25;;;1.55;;
37781;SDS011;23621;50.878;4.584;2022-09-09T01:49:31;2.75;;;1.40;;
37781;SDS011;23621;50.878;4.584;2022-09-09T01:51:59;4.70;;;1.50;;
37781;SDS011;23621;50.878;4.584;2022-09-09T01:54:26;3.35;;;1.80;;
37781;SDS011;23621;50.878;4.584;2022-09-09T02:02:23;3.95;;;1.90;;
37781;SDS011;23621;50.878;4.584;2022-09-09T02:04:56;3.38;;;1.55;;
37781;SDS011;23621;50.878;4.584;2022-09-09T02:10:15;6.93;;;2.10;;
37781;SDS011;23621;50.878;4.584;2022-09-09T02:12:48;6.00;;;1.85;;
37781;SDS011;23621;50.878;4.584;2022-09-09T02:15:21;4.65;;;2.13;;
37781;SDS011;23621;50.878;4.584;2022-09-09T02:17:52;4.40;;;1.60;;
37781;SDS011;23621;50.878;4.584;2022-09-09T02:20:22;4.25;;;1.80;;
37781;SDS011;23621;50.878;4.584;2022-09-09T02:22:58;5.30;;;2.17;;
37781;SDS011;23621;50.878;4.584;2022-09-09T02:25:28;5.18;;;2.00;;
37781;SDS011;23621;50.878;4.584;2022-09-09T02:27:56;6.50;;;2.08;;
37781;SDS011;23621;50.878;4.584;2022-09-09T02:30:26;6.20;;;2.00;;
37781;SDS011;23621;50.878;4.584;2022-09-09T02:32:57;5.05;;;1.88;;
37781;SDS011;23621;50.878;4.584;2022-09-09T02:35:27;8.27;;;2.28;;
37781;SDS011;23621;50.878;4.584;2022-09-09T02:37:56;2.72;;;1.80;;
37781;SDS011;23621;50.878;4.584;2022-09-09T02:40:30;2.53;;;1.73;;
37781;SDS011;23621;50.878;4.584;2022-09-09T02:42:57;4.13;;;1.85;;
37781;SDS011;23621;50.878;4.584;2022-09-09T02:45:25;8.85;;;2.25;;
37781;SDS011;23621;50.878;4.584;2022-09-09T02:51:01;2.92;;;1.70;;
37781;SDS011;23621;50.878;4.584;2022-09-09T02:56:38;3.83;;;1.83;;
37781;SDS011;23621;50.878;4.584;2022-09-09T02:59:09;6.88;;;1.95;;
37781;SDS011;23621;50.878;4.584;2022-09-09T03:01:37;4.72;;;1.80;;
37781;SDS011;23621;50.878;4.584;2022-09-09T03:04:06;4.05;;;1.75;;
37781;SDS011;23621;50.878;4.584;2022-09-09T03:06:32;5.72;;;1.80;;
37781;SDS011;23621;50.878;4.584;2022-09-09T03:08:59;5.93;;;1.77;;
37781;SDS011;23621;50.878;4.584;2022-09-09T03:11:28;4.60;;;1.75;;
37781;SDS011;23621;50.878;4.584;2022-09-09T03:13:54;4.45;;;1.85;;
37781;SDS011;23621;50.878;4.584;2022-09-09T03:16:24;6.47;;;1.90;;
37781;SDS011;23621;50.878;4.584;2022-09-09T03:18:51;4.55;;;2.10;;
37781;SDS011;23621;50.878;4.584;2022-09-09T03:21:18;4.10;;;1.45;;
37781;SDS011;23621;50.878;4.584;2022-09-09T03:23:45;6.28;;;2.08;;
37781;SDS011;23621;50.878;4.584;2022-09-09T03:26:12;4.70;;;2.00;;
37781;SDS011;23621;50.878;4.584;2022-09-09T03:28:41;5.20;;;2.10;;
37781;SDS011;23621;50.878;4.584;2022-09-09T03:31:09;3.08;;;1.85;;
37781;SDS011;23621;50.878;4.584;2022-09-09T03:33:36;6.28;;;1.80;;
37781;SDS011;23621;50.878;4.584;2022-09-09T03:36:04;4.82;;;1.98;;
37781;SDS011;23621;50.878;4.584;2022-09-09T03:38:31;5.50;;;1.95;;
37781;SDS011;23621;50.878;4.584;2022-09-09T03:40:59;4.47;;;1.88;;
37781;SDS011;23621;50.878;4.584;2022-09-09T03:43:28;6.03;;;1.90;;
37781;SDS011;23621;50.878;4.584;2022-09-09T03:45:55;5.20;;;2.40;;
37781;SDS011;23621;50.878;4.584;2022-09-09T03:48:25;7.10;;;1.95;;
37781;SDS011;23621;50.878;4.584;2022-09-09T03:50:54;4.18;;;1.67;;
37781;SDS011;23621;50.878;4.584;2022-09-09T03:53:24;3.92;;;1.55;;
37781;SDS011;23621;50.878;4.584;2022-09-09T03:55:51;4.75;;;1.90;;
37781;SDS011;23621;50.878;4.584;2022-09-09T03:58:23;5.55;;;1.80;;
37781;SDS011;23621;50.878;4.584;2022-09-09T04:00:57;3.83;;;1.73;;
37781;SDS011;23621;50.878;4.584;2022-09-09T04:03:32;5.80;;;2.40;;
37781;SDS011;23621;50.878;4.584;2022-09-09T04:05:59;4.38;;;1.70;;
37781;SDS011;23621;50.878;4.584;2022-09-09T04:08:31;5.60;;;1.77;;
37781;SDS011;23621;50.878;4.584;2022-09-09T04:10:58;5.10;;;2.08;;
37781;SDS011;23621;50.878;4.584;2022-09-09T04:13:26;4.78;;;2.13;;
37781;SDS011;23621;50.878;4.584;2022-09-09T04:15:57;5.50;;;1.92;;
37781;SDS011;23621;50.878;4.584;2022-09-09T04:18:25;6.93;;;1.80;;
37781;SDS011;23621;50.878;4.584;2022-09-09T04:20:54;5.53;;;1.90;;
37781;SDS011;23621;50.878;4.584;2022-09-09T04:23:23;3.67;;;2.03;;
37781;SDS011;23621;50.878;4.584;2022-09-09T04:25:55;6.50;;;2.00;;
37781;SDS011;23621;50.878;4.584;2022-09-09T04:28:23;8.18;;;2.25;;
37781;SDS011;23621;50.878;4.584;2022-09-09T04:30:52;5.40;;;2.10;;
37781;SDS011;23621;50.878;4.584;2022-09-09T04:33:19;3.70;;;2.00;;
37781;SDS011;23621;50.878;4.584;2022-09-09T04:35:47;5.65;;;2.10;;
37781;SDS011;23621;50.878;4.584;2022-09-09T04:38:15;5.18;;;2.10;;
37781;SDS011;23621;50.878;4.584;2022-09-09T04:40:43;4.68;;;1.90;;
37781;SDS011;23621;50.878;4.584;2022-09-09T04:43:12;4.82;;;2.05;;
37781;SDS011;23621;50.878;4.584;2022-09-09T04:45:44;6.63;;;1.70;;
37781;SDS011;23621;50.878;4.584;2022-09-09T04:48:14;4.22;;;1.80;;
37781;SDS011;23621;50.878;4.584;2022-09-09T04:50:41;4.82;;;2.25;;
37781;SDS011;23621;50.878;4.584;2022-09-09T04:53:08;4.68;;;2.13;;
37781;SDS011;23621;50.878;4.584;2022-09-09T04:55:34;6.03;;;2.08;;
37781;SDS011;23621;50.878;4.584;2022-09-09T04:58:05;3.25;;;2.00;;
37781;SDS011;23621;50.878;4.584;2022-09-09T05:00:33;7.68;;;2.20;;
37781;SDS011;23621;50.878;4.584;2022-09-09T05:03:02;5.57;;;2.42;;
37781;SDS011;23621;50.878;4.584;2022-09-09T05:05:31;5.95;;;2.30;;
37781;SDS011;23621;50.878;4.584;2022-09-09T05:08:03;6.85;;;2.40;;
37781;SDS011;23621;50.878;4.584;2022-09-09T05:10:32;5.97;;;2.30;;
37781;SDS011;23621;50.878;4.584;2022-09-09T05:12:59;8.25;;;2.30;;
37781;SDS011;23621;50.878;4.584;2022-09-09T05:15:26;9.55;;;2.60;;
37781;SDS011;23621;50.878;4.584;2022-09-09T05:17:56;8.68;;;2.50;;
37781;SDS011;23621;50.878;4.584;2022-09-09T05:20:24;6.47;;;2.33;;
37781;SDS011;23621;50.878;4.584;2022-09-09T05:22:54;8.02;;;2.47;;
37781;SDS011;23621;50.878;4.584;2022-09-09T05:25:23;10.48;;;2.60;;
37781;SDS011;23621;50.878;4.584;2022-09-09T05:27:52;6.30;;;2.53;;
37781;SDS011;23621;50.878;4.584;2022-09-09T05:30:20;5.45;;;2.38;;
37781;SDS011;23621;50.878;4.584;2022-09-09T05:32:47;8.27;;;2.58;;
37781;SDS011;23621;50.878;4.584;2022-09-09T05:35:15;11.73;;;3.08;;
37781;SDS011;23621;50.878;4.584;2022-09-09T05:37:42;6.63;;;2.17;;
37781;SDS011;23621;50.878;4.584;2022-09-09T05:40:09;6.38;;;2.45;;
37781;SDS011;23621;50.878;4.584;2022-09-09T05:42:37;10.63;;;3.00;;
37781;SDS011;23621;50.878;4.584;2022-09-09T05:45:05;8.68;;;2.58;;
37781;SDS011;23621;50.878;4.584;2022-09-09T05:47:34;5.65;;;2.90;;
37781;SDS011;23621;50.878;4.584;2022-09-09T05:50:03;9.02;;;2.60;;
37781;SDS011;23621;50.878;4.584;2022-09-09T05:52:31;7.10;;;2.33;;
37781;SDS011;23621;50.878;4.584;2022-09-09T05:54:58;4.68;;;2.35;;
37781;SDS011;23621;50.878;4.584;2022-09-09T05:57:25;5.00;;;2.05;;
37781;SDS011;23621;50.878;4.584;2022-09-09T05:59:52;4.68;;;2.10;;
37781;SDS011;23621;50.878;4.584;2022-09-09T06:02:19;5.50;;;2.20;;
37781;SDS011;23621;50.878;4.584;2022-09-09T06:04:46;6.72;;;2.15;;
37781;SDS011;23621;50.878;4.584;2022-09-09T06:07:13;6.43;;;2.53;;
37781;SDS011;23621;50.878;4.584;2022-09-09T06:09:40;5.45;;;2.10;;
37781;SDS011;23621;50.878;4.584;2022-09-09T06:12:07;4.88;;;2.00;;
37781;SDS011;23621;50.878;4.584;2022-09-09T06:14:35;6.47;;;2.20;;
37781;SDS011;23621;50.878;4.584;2022-09-09T06:17:03;5.30;;;2.38;;
37781;SDS011;23621;50.878;4.584;2022-09-09T06:19:30;8.65;;;2.72;;
37781;SDS011;23621;50.878;4.584;2022-09-09T06:21:57;6.40;;;2.30;;
37781;SDS011;23621;50.878;4.584;2022-09-09T06:24:24;6.68;;;2.17;;
37781;SDS011;23621;50.878;4.584;2022-09-09T06:26:51;2.58;;;2.03;;
37781;SDS011;23621;50.878;4.584;2022-09-09T06:29:18;6.43;;;2.47;;
37781;SDS011;23621;50.878;4.584;2022-09-09T06:31:44;6.35;;;2.40;;
37781;SDS011;23621;50.878;4.584;2022-09-09T06:34:11;6.95;;;2.20;;
37781;SDS011;23621;50.878;4.584;2022-09-09T06:36:38;9.73;;;2.38;;
37781;SDS011;23621;50.878;4.584;2022-09-09T06:39:06;5.50;;;2.17;;
37781;SDS011;23621;50.878;4.584;2022-09-09T06:41:39;7.15;;;2.53;;
37781;SDS011;23621;50.878;4.584;2022-09-09T06:44:07;8.77;;;2.25;;
37781;SDS011;23621;50.878;4.584;2022-09-09T06:46:36;5.68;;;2.03;;
37781;SDS011;23621;50.878;4.584;2022-09-09T06:49:04;4.32;;;2.15;;
37781;SDS011;23621;50.878;4.584;2022-09-09T06:51:31;5.22;;;2.22;;
37781;SDS011;23621;50.878;4.584;2022-09-09T06:54:01;3.80;;;2.08;;
37781;SDS011;23621;50.878;4.584;2022-09-09T06:56:33;7.22;;;2.10;;
37781;SDS011;23621;50.878;4.584;2022-09-09T06:59:03;6.43;;;2.10;;
37781;SDS011;23621;50.878;4.584;2022-09-09T07:01:34;7.35;;;2.70;;
37781;SDS011;23621;50.878;4.584;2022-09-09T07:04:03;6.20;;;2.40;;
37781;SDS011;23621;50.878;4.584;2022-09-09T07:06:31;4.53;;;2.28;;
37781;SDS011;23621;50.878;4.584;2022-09-09T07:09:01;6.07;;;2.25;;
37781;SDS011;23621;50.878;4.584;2022-09-09T07:11:42;4.25;;;2.22;;
37781;SDS011;23621;50.878;4.584;2022-09-09T07:14:11;8.38;;;2.67;;
37781;SDS011;23621;50.878;4.584;2022-09-09T07:16:43;5.10;;;2.25;;
37781;SDS011;23621;50.878;4.584;2022-09-09T07:19:11;5.22;;;2.15;;
37781;SDS011;23621;50.878;4.584;2022-09-09T07:21:38;6.18;;;2.30;;
37781;SDS011;23621;50.878;4.584;2022-09-09T07:24:08;6.72;;;2.45;;
37781;SDS011;23621;50.878;4.584;2022-09-09T07:26:37;6.25;;;2.10;;
37781;SDS011;23621;50.878;4.584;2022-09-09T07:29:04;6.00;;;2.08;;
37781;SDS011;23621;50.878;4.584;2022-09-09T07:31:32;5.55;;;2.38;;
37781;SDS011;23621;50.878;4.584;2022-09-09T07:34:02;4.40;;;2.10;;
37781;SDS011;23621;50.878;4.584;2022-09-09T07:36:31;4.47;;;2.40;;
37781;SDS011;23621;50.878;4.584;2022-09-09T07:39:01;7.18;;;2.60;;
37781;SDS011;23621;50.878;4.584;2022-09-09T07:41:37;4.57;;;2.25;;
37781;SDS011;23621;50.878;4.584;2022-09-09T07:44:07;5.32;;;2.10;;
37781;SDS011;23621;50.878;4.584;2022-09-09T07:46:45;6.05;;;1.95;;
37781;SDS011;23621;50.878;4.584;2022-09-09T07:49:12;4.88;;;2.10;;
37781;SDS011;23621;50.878;4.584;2022-09-09T07:51:41;5.90;;;2.40;;
37781;SDS011;23621;50.878;4.584;2022-09-09T07:54:11;4.40;;;2.00;;
37781;SDS011;23621;50.878;4.584;2022-09-09T07:56:39;5.22;;;2.17;;
37781;SDS011;23621;50.878;4.584;2022-09-09T07:59:07;9.07;;;2.45;;
37781;SDS011;23621;50.878;4.584;2022-09-09T08:01:39;7.93;;;2.50;;
37781;SDS011;23621;50.878;4.584;2022-09-09T08:04:21;8.23;;;2.53;;
37781;SDS011;23621;50.878;4.584;2022-09-09T08:06:59;8.13;;;2.40;;
37781;SDS011;23621;50.878;4.584;2022-09-09T08:09:30;5.78;;;2.28;;
37781;SDS011;23621;50.878;4.584;2022-09-09T08:11:58;6.82;;;2.20;;
37781;SDS011;23621;50.878;4.584;2022-09-09T08:14:27;6.80;;;2.28;;
37781;SDS011;23621;50.878;4.584;2022-09-09T08:16:53;5.00;;;2.42;;
37781;SDS011;23621;50.878;4.584;2022-09-09T08:19:20;5.75;;;2.35;;
37781;SDS011;23621;50.878;4.584;2022-09-09T08:21:47;4.30;;;1.90;;
37781;SDS011;23621;50.878;4.584;2022-09-09T08:24:15;4.35;;;2.33;;
37781;SDS011;23621;50.878;4.584;2022-09-09T08:26:43;7.72;;;2.10;;
37781;SDS011;23621;50.878;4.584;2022-09-09T08:29:12;5.68;;;2.30;;
37781;SDS011;23621;50.878;4.584;2022-09-09T08:31:41;6.35;;;2.33;;
37781;SDS011;23621;50.878;4.584;2022-09-09T08:34:09;6.32;;;2.15;;
37781;SDS011;23621;50.878;4.584;2022-09-09T08:36:46;4.88;;;1.90;;
37781;SDS011;23621;50.878;4.584;2022-09-09T08:39:15;6.28;;;2.22;;
37781;SDS011;23621;50.878;4.584;2022-09-09T08:47:34;8.63;;;2.15;;
37781;SDS011;23621;50.878;4.584;2022-09-09T08:50:30;5.25;;;2.08;;
37781;SDS011;23621;50.878;4.584;2022-09-09T08:58:14;5.28;;;2.30;;
37781;SDS011;23621;50.878;4.584;2022-09-09T09:06:39;5.13;;;2.22;;
37781;SDS011;23621;50.878;4.584;2022-09-09T09:12:27;5.63;;;1.98;;
37781;SDS011;23621;50.878;4.584;2022-09-09T09:14:58;5.00;;;2.30;;
37781;SDS011;23621;50.878;4.584;2022-09-09T09:17:26;6.68;;;2.08;;
37781;SDS011;23621;50.878;4.584;2022-09-09T09:19:57;5.85;;;2.17;;
37781;SDS011;23621;50.878;4.584;2022-09-09T09:22:48;6.80;;;2.50;;
37781;SDS011;23621;50.878;4.584;2022-09-09T09:25:21;4.63;;;2.28;;
37781;SDS011;23621;50.878;4.584;2022-09-09T09:27:57;7.18;;;2.60;;
37781;SDS011;23621;50.878;4.584;2022-09-09T09:30:29;5.68;;;2.25;;
37781;SDS011;23621;50.878;4.584;2022-09-09T09:33:02;6.25;;;2.20;;
37781;SDS011;23621;50.878;4.584;2022-09-09T09:35:43;5.85;;;1.95;;
37781;SDS011;23621;50.878;4.584;2022-09-09T09:38:17;6.88;;;2.50;;
37781;SDS011;23621;50.878;4.584;2022-09-09T09:41:05;5.88;;;2.38;;
37781;SDS011;23621;50.878;4.584;2022-09-09T09:43:34;6.35;;;2.38;;
37781;SDS011;23621;50.878;4.584;2022-09-09T09:46:16;5.35;;;2.38;;
37781;SDS011;23621;50.878;4.584;2022-09-09T09:49:11;5.72;;;2.08;;
37781;SDS011;23621;50.878;4.584;2022-09-09T09:51:39;4.65;;;2.05;;
37781;SDS011;23621;50.878;4.584;2022-09-09T09:54:14;6.10;;;2.10;;
37781;SDS011;23621;50.878;4.584;2022-09-09T09:56:42;6.07;;;1.90;;
37781;SDS011;23621;50.878;4.584;2022-09-09T09:59:20;5.72;;;2.20;;
37781;SDS011;23621;50.878;4.584;2022-09-09T10:02:24;7.20;;;2.30;;
37781;SDS011;23621;50.878;4.584;2022-09-09T10:07:41;5.00;;;2.17;;
37781;SDS011;23621;50.878;4.584;2022-09-09T10:10:11;5.18;;;2.08;;
37781;SDS011;23621;50.878;4.584;2022-09-09T10:15:44;4.95;;;1.83;;
37781;SDS011;23621;50.878;4.584;2022-09-09T10:32:06;6.63;;;2.22;;
37781;SDS011;23621;50.878;4.584;2022-09-09T10:40:33;5.72;;;2.78;;
37781;SDS011;23621;50.878;4.584;2022-09-09T10:45:42;4.93;;;2.13;;
37781;SDS011;23621;50.878;4.584;2022-09-09T10:48:16;5.35;;;2.22;;
37781;SDS011;23621;50.878;4.584;2022-09-09T10:50:45;6.13;;;2.30;;
37781;SDS011;23621;50.878;4.584;2022-09-09T10:56:23;5.30;;;2.20;;
37781;SDS011;23621;50.878;4.584;2022-09-09T10:58:52;7.00;;;2.58;;
37781;SDS011;23621;50.878;4.584;2022-09-09T11:01:37;5.20;;;2.20;;
37781;SDS011;23621;50.878;4.584;2022-09-09T11:04:26;6.60;;;2.22;;
37781;SDS011;23621;50.878;4.584;2022-09-09T11:07:01;7.05;;;2.50;;
37781;SDS011;23621;50.878;4.584;2022-09-09T11:09:39;4.78;;;2.20;;
37781;SDS011;23621;50.878;4.584;2022-09-09T11:12:12;5.15;;;2.25;;
37781;SDS011;23621;50.878;4.584;2022-09-09T11:14:46;5.97;;;2.20;;
37781;SDS011;23621;50.878;4.584;2022-09-09T11:17:49;6.32;;;2.00;;
37781;SDS011;23621;50.878;4.584;2022-09-09T11:20:21;4.28;;;2.10;;
37781;SDS011;23621;50.878;4.584;2022-09-09T11:25:48;4.57;;;1.83;;
37781;SDS011;23621;50.878;4.584;2022-09-09T11:42:36;4.05;;;1.98;;
37781;SDS011;23621;50.878;4.584;2022-09-09T11:48:03;5.85;;;2.00;;
37781;SDS011;23621;50.878;4.584;2022-09-09T11:50:35;4.28;;;2.22;;
37781;SDS011;23621;50.878;4.584;2022-09-09T11:55:40;4.00;;;1.90;;
37781;SDS011;23621;50.878;4.584;2022-09-09T12:00:48;2.90;;;1.80;;
37781;SDS011;23621;50.878;4.584;2022-09-09T12:06:20;5.50;;;2.17;;
37781;SDS011;23621;50.878;4.584;2022-09-09T12:08:56;4.22;;;1.63;;
37781;SDS011;23621;50.878;4.584;2022-09-09T12:11:33;5.82;;;1.85;;
37781;SDS011;23621;50.878;4.584;2022-09-09T12:14:00;4.68;;;1.90;;
37781;SDS011;23621;50.878;4.584;2022-09-09T12:16:36;3.08;;;1.80;;
37781;SDS011;23621;50.878;4.584;2022-09-09T12:19:14;3.70;;;1.90;;
37781;SDS011;23621;50.878;4.584;2022-09-09T12:21:44;5.20;;;1.60;;
37781;SDS011;23621;50.878;4.584;2022-09-09T12:24:15;5.70;;;1.80;;
37781;SDS011;23621;50.878;4.584;2022-09-09T12:27:07;4.00;;;1.77;;
37781;SDS011;23621;50.878;4.584;2022-09-09T12:29:46;5.43;;;1.90;;
37781;SDS011;23621;50.878;4.584;2022-09-09T12:32:31;4.40;;;1.70;;
37781;SDS011;23621;50.878;4.584;2022-09-09T12:42:31;3.25;;;1.70;;
37781;SDS011;23621;50.878;4.584;2022-09-09T12:45:14;3.67;;;1.55;;
37781;SDS011;23621;50.878;4.584;2022-09-09T12:47:57;3.03;;;1.60;;
37781;SDS011;23621;50.878;4.584;2022-09-09T12:50:25;3.13;;;1.70;;
37781;SDS011;23621;50.878;4.584;2022-09-09T12:52:58;6.20;;;1.75;;
37781;SDS011;23621;50.878;4.584;2022-09-09T12:55:28;4.43;;;1.90;;
37781;SDS011;23621;50.878;4.584;2022-09-09T12:58:02;4.07;;;1.58;;
37781;SDS011;23621;50.878;4.584;2022-09-09T13:00:32;4.40;;;1.60;;
37781;SDS011;23621;50.878;4.584;2022-09-09T13:03:01;3.53;;;1.83;;
37781;SDS011;23621;50.878;4.584;2022-09-09T13:05:40;2.53;;;1.60;;
37781;SDS011;23621;50.878;4.584;2022-09-09T13:08:14;4.03;;;1.73;;
37781;SDS011;23621;50.878;4.584;2022-09-09T13:11:00;3.13;;;1.75;;
37781;SDS011;23621;50.878;4.584;2022-09-09T13:13:36;4.43;;;1.60;;
37781;SDS011;23621;50.878;4.584;2022-09-09T13:16:06;2.33;;;1.40;;
37781;SDS011;23621;50.878;4.584;2022-09-09T13:18:44;2.78;;;1.35;;
37781;SDS011;23621;50.878;4.584;2022-09-09T13:21:11;3.42;;;1.20;;
37781;SDS011;23621;50.878;4.584;2022-09-09T13:23:38;3.17;;;1.45;;
37781;SDS011;23621;50.878;4.584;2022-09-09T13:26:24;2.65;;;1.30;;
37781;SDS011;23621;50.878;4.584;2022-09-09T13:28:55;3.25;;;1.30;;
37781;SDS011;23621;50.878;4.584;2022-09-09T13:31:41;2.35;;;1.23;;
37781;SDS011;23621;50.878;4.584;2022-09-09T13:34:11;2.72;;;1.40;;
37781;SDS011;23621;50.878;4.584;2022-09-09T13:36:39;2.25;;;1.25;;
37781;SDS011;23621;50.878;4.584;2022-09-09T13:39:25;2.08;;;1.30;;
37781;SDS011;23621;50.878;4.584;2022-09-09T13:41:52;5.05;;;1.52;;
37781;SDS011;23621;50.878;4.584;2022-09-09T13:44:24;2.03;;;1.23;;
37781;SDS011;23621;50.878;4.584;2022-09-09T13:47:39;3.25;;;1.58;;
37781;SDS011;23621;50.878;4.584;2022-09-09T13:49:49;3.40;;;1.63;;
37781;SDS011;23621;50.878;4.584;2022-09-09T13:52:18;2.22;;;1.20;;
37781;SDS011;23621;50.878;4.584;2022-09-09T13:54:49;2.95;;;1.60;;
37781;SDS011;23621;50.878;4.584;2022-09-09T13:57:18;1.48;;;1.10;;
37781;SDS011;23621;50.878;4.584;2022-09-09T13:59:47;2.55;;;1.40;;
37781;SDS011;23621;50.878;4.584;2022-09-09T14:02:31;2.75;;;1.60;;
37781;SDS011;23621;50.878;4.584;2022-09-09T14:04:59;1.77;;;1.40;;
37781;SDS011;23621;50.878;4.584;2022-09-09T14:07:26;1.42;;;1.05;;
37781;SDS011;23621;50.878;4.584;2022-09-09T14:09:53;1.65;;;1.23;;
37781;SDS011;23621;50.878;4.584;2022-09-09T14:12:20;2.70;;;1.08;;
37781;SDS011;23621;50.878;4.584;2022-09-09T14:14:47;1.88;;;1.50;;
37781;SDS011;23621;50.878;4.584;2022-09-09T14:17:13;2.38;;;1.20;;
37781;SDS011;23621;50.878;4.584;2022-09-09T14:19:40;1.50;;;1.10;;
37781;SDS011;23621;50.878;4.584;2022-09-09T14:22:08;2.75;;;1.40;;
37781;SDS011;23621;50.878;4.584;2022-09-09T14:24:35;1.60;;;1.30;;
37781;SDS011;23621;50.878;4.584;2022-09-09T14:27:02;3.63;;;1.40;;
37781;SDS011;23621;50.878;4.584;2022-09-09T14:29:29;3.42;;;1.65;;
37781;SDS011;23621;50.878;4.584;2022-09-09T14:31:55;4.07;;;1.50;;
37781;SDS011;23621;50.878;4.584;2022-09-09T14:34:22;3.78;;;2.15;;
37781;SDS011;23621;50.878;4.584;2022-09-09T14:36:49;2.92;;;1.65;;
37781;SDS011;23621;50.878;4.584;2022-09-09T14:39:16;2.63;;;1.50;;
37781;SDS011;23621;50.878;4.584;2022-09-09T14:41:43;5.63;;;1.60;;
37781;SDS011;23621;50.878;4.584;2022-09-09T14:44:10;5.32;;;2.03;;
37781;SDS011;23621;50.878;4.584;2022-09-09T14:46:36;2.30;;;1.58;;
37781;SDS011;23621;50.878;4.584;2022-09-09T14:49:04;3.63;;;1.77;;
37781;SDS011;23621;50.878;4.584;2022-09-09T14:51:30;3.03;;;1.60;;
37781;SDS011;23621;50.878;4.584;2022-09-09T14:53:58;4.50;;;1.45;;
37781;SDS011;23621;50.878;4.584;2022-09-09T14:56:26;3.38;;;1.60;;
37781;SDS011;23621;50.878;4.584;2022-09-09T14:58:56;2.67;;;1.45;;
37781;SDS011;23621;50.878;4.584;2022-09-09T15:01:24;2.35;;;1.40;;
37781;SDS011;23621;50.878;4.584;2022-09-09T15:04:01;4.03;;;1.60;;
37781;SDS011;23621;50.878;4.584;2022-09-09T15:06:30;3.40;;;1.70;;
37781;SDS011;23621;50.878;4.584;2022-09-09T15:08:59;3.65;;;1.80;;
37781;SDS011;23621;50.878;4.584;2022-09-09T15:11:27;3.08;;;1.50;;
37781;SDS011;23621;50.878;4.584;2022-09-09T15:13:56;2.70;;;1.60;;
37781;SDS011;23621;50.878;4.584;2022-09-09T15:16:25;2.13;;;1.33;;
37781;SDS011;23621;50.878;4.584;2022-09-09T15:18:54;2.50;;;1.48;;
37781;SDS011;23621;50.878;4.584;2022-09-09T15:21:24;2.83;;;1.27;;
37781;SDS011;23621;50.878;4.584;2022-09-09T15:23:52;2.53;;;1.50;;
37781;SDS011;23621;50.878;4.584;2022-09-09T15:26:19;2.17;;;1.38;;
37781;SDS011;23621;50.878;4.584;2022-09-09T15:28:47;2.95;;;1.35;;
37781;SDS011;23621;50.878;4.584;2022-09-09T15:31:17;3.15;;;1.33;;
37781;SDS011;23621;50.878;4.584;2022-09-09T15:33:52;2.42;;;1.20;;
37781;SDS011;23621;50.878;4.584;2022-09-09T15:38:56;2.58;;;1.40;;
37781;SDS011;23621;50.878;4.584;2022-09-09T15:41:23;6.45;;;1.88;;
37781;SDS011;23621;50.878;4.584;2022-09-09T15:43:51;4.97;;;2.20;;
37781;SDS011;23621;50.878;4.584;2022-09-09T15:48:55;7.80;;;1.70;;
37781;SDS011;23621;50.878;4.584;2022-09-09T15:51:24;3.85;;;1.70;;
37781;SDS011;23621;50.878;4.584;2022-09-09T15:54:13;2.95;;;1.42;;
37781;SDS011;23621;50.878;4.584;2022-09-09T15:56:43;2.58;;;1.25;;
37781;SDS011;23621;50.878;4.584;2022-09-09T15:59:11;2.28;;;1.48;;
37781;SDS011;23621;50.878;4.584;2022-09-09T16:01:38;3.70;;;1.45;;
37781;SDS011;23621;50.878;4.584;2022-09-09T16:04:09;2.58;;;1.58;;
37781;SDS011;23621;50.878;4.584;2022-09-09T16:06:37;4.55;;;1.63;;
37781;SDS011;23621;50.878;4.584;2022-09-09T16:09:04;3.20;;;1.70;;
37781;SDS011;23621;50.878;4.584;2022-09-09T16:11:33;3.67;;;1.70;;
37781;SDS011;23621;50.878;4.584;2022-09-09T16:14:02;4.22;;;1.23;;
37781;SDS011;23621;50.878;4.584;2022-09-09T16:16:30;3.08;;;1.55;;
37781;SDS011;23621;50.878;4.584;2022-09-09T16:18:58;3.25;;;1.55;;
37781;SDS011;23621;50.878;4.584;2022-09-09T16:21:28;1.88;;;1.40;;
37781;SDS011;23621;50.878;4.584;2022-09-09T16:23:59;3.17;;;1.35;;
37781;SDS011;23621;50.878;4.584;2022-09-09T16:26:29;4.00;;;1.63;;
37781;SDS011;23621;50.878;4.584;2022-09-09T16:28:57;3.00;;;1.60;;
37781;SDS011;23621;50.878;4.584;2022-09-09T16:31:26;3.63;;;1.58;;
37781;SDS011;23621;50.878;4.584;2022-09-09T16:33:54;2.05;;;1.45;;
37781;SDS011;23621;50.878;4.584;2022-09-09T16:36:22;4.22;;;1.50;;
37781;SDS011;23621;50.878;4.584;2022-09-09T16:38:53;7.22;;;1.95;;
37781;SDS011;23621;50.878;4.584;2022-09-09T16:41:21;4.03;;;1.77;;
37781;SDS011;23621;50.878;4.584;2022-09-09T16:43:56;4.32;;;1.63;;
37781;SDS011;23621;50.878;4.584;2022-09-09T16:46:28;1.90;;;1.38;;
37781;SDS011;23621;50.878;4.584;2022-09-09T16:48:57;2.50;;;1.67;;
37781;SDS011;23621;50.878;4.584;2022-09-09T16:51:26;4.28;;;1.80;;
37781;SDS011;23621;50.878;4.584;2022-09-09T16:53:59;2.65;;;1.45;;
37781;SDS011;23621;50.878;4.584;2022-09-09T16:56:28;1.48;;;1.38;;
37781;SDS011;23621;50.878;4.584;2022-09-09T16:59:00;2.08;;;1.38;;
37781;SDS011;23621;50.878;4.584;2022-09-09T17:01:29;2.25;;;1.45;;
37781;SDS011;23621;50.878;4.584;2022-09-09T17:03:59;2.63;;;1.38;;
37781;SDS011;23621;50.878;4.584;2022-09-09T17:06:28;1.65;;;1.20;;
37781;SDS011;23621;50.878;4.584;2022-09-09T17:08:57;2.85;;;1.33;;
37781;SDS011;23621;50.878;4.584;2022-09-09T17:11:25;1.40;;;1.27;;
37781;SDS011;23621;50.878;4.584;2022-09-09T17:13:53;2.72;;;1.40;;
37781;SDS011;23621;50.878;4.584;2022-09-09T17:16:21;1.95;;;1.27;;
37781;SDS011;23621;50.878;4.584;2022-09-09T17:18:50;3.35;;;1.60;;
37781;SDS011;23621;50.878;4.584;2022-09-09T17:21:18;2.35;;;1.30;;
37781;SDS011;23621;50.878;4.584;2022-09-09T17:23:46;3.85;;;2.08;;
37781;SDS011;23621;50.878;4.584;2022-09-09T17:26:14;2.13;;;1.60;;